sensor_id;sensor_type;location;lat;lon;timestamp;pressure;altitude;pressure_sealevel;temperature;humidity
74552;BME280;63025;55.472;38.432;2023-02-04T00:01:43;99772.88;;;0.55;84.59
74552;BME280;63025;55.472;38.432;2023-02-04T00:04:11;99771.22;;;0.54;85.01
74552;BME280;63025;55.472;38.432;2023-02-04T00:06:37;99770.09;;;0.57;85.02
74552;BME280;63025;55.472;38.432;2023-02-04T00:09:03;99772.88;;;0.55;85.09
74552;BME280;63025;55.472;38.432;2023-02-04T00:11:30;99767.59;;;0.55;85.16
74552;BME280;63025;55.472;38.432;2023-02-04T00:13:55;99769.94;;;0.58;84.99
74552;BME280;63025;55.472;38.432;2023-02-04T00:16:21;99781.69;;;0.64;85.15
74552;BME280;63025;55.472;38.432;2023-02-04T00:18:47;99775.06;;;0.60;85.33
74552;BME280;63025;55.472;38.432;2023-02-04T00:21:12;99781.50;;;0.57;85.02
74552;BME280;63025;55.472;38.432;2023-02-04T00:23:38;99782.09;;;0.51;84.75
74552;BME280;63025;55.472;38.432;2023-02-04T00:26:04;99791.84;;;0.51;84.35
74552;BME280;63025;55.472;38.432;2023-02-04T00:28:30;99785.59;;;0.52;84.72
74552;BME280;63025;55.472;38.432;2023-02-04T00:30:55;99794.50;;;0.51;84.70
74552;BME280;63025;55.472;38.432;2023-02-04T00:33:21;99798.63;;;0.53;84.39
74552;BME280;63025;55.472;38.432;2023-02-04T00:35:47;99794.66;;;0.49;85.12
74552;BME280;63025;55.472;38.432;2023-02-04T00:38:12;99798.25;;;0.48;84.65
74552;BME280;63025;55.472;38.432;2023-02-04T00:40:39;99799.25;;;0.47;84.16
74552;BME280;63025;55.472;38.432;2023-02-04T00:43:05;99797.22;;;0.41;84.47
74552;BME280;63025;55.472;38.432;2023-02-04T00:45:30;99791.59;;;0.44;84.87
74552;BME280;63025;55.472;38.432;2023-02-04T00:47:56;99797.03;;;0.43;84.55
74552;BME280;63025;55.472;38.432;2023-02-04T00:50:22;99796.38;;;0.41;84.47
74552;BME280;63025;55.472;38.432;2023-02-04T00:52:48;99799.31;;;0.38;85.10
74552;BME280;63025;55.472;38.432;2023-02-04T00:55:14;99804.75;;;0.36;84.61
74552;BME280;63025;55.472;38.432;2023-02-04T00:57:43;99801.06;;;0.29;84.80
74552;BME280;63025;55.472;38.432;2023-02-04T01:00:12;99800.38;;;0.27;85.02
74552;BME280;63025;55.472;38.432;2023-02-04T01:02:38;99798.31;;;0.21;84.54
74552;BME280;63025;55.472;38.432;2023-02-04T01:05:06;99799.97;;;0.22;85.33
74552;BME280;63025;55.472;38.432;2023-02-04T01:07:32;99802.09;;;0.18;85.33
74552;BME280;63025;55.472;38.432;2023-02-04T01:10:14;99799.88;;;0.14;85.05
74552;BME280;63025;55.472;38.432;2023-02-04T01:12:40;99808.44;;;0.08;84.67
74552;BME280;63025;55.472;38.432;2023-02-04T01:15:06;99808.03;;;0.03;84.87
74552;BME280;63025;55.472;38.432;2023-02-04T01:17:32;99814.00;;;0.05;85.61
74552;BME280;63025;55.472;38.432;2023-02-04T01:19:58;99820.25;;;0.04;85.36
74552;BME280;63025;55.472;38.432;2023-02-04T01:22:23;99824.13;;;0.09;85.79
74552;BME280;63025;55.472;38.432;2023-02-04T01:24:49;99818.84;;;0.09;84.79
74552;BME280;63025;55.472;38.432;2023-02-04T01:27:33;99825.94;;;0.09;85.31
74552;BME280;63025;55.472;38.432;2023-02-04T01:30:03;99819.97;;;0.07;85.18
74552;BME280;63025;55.472;38.432;2023-02-04T01:32:29;99818.72;;;0.01;85.71
74552;BME280;63025;55.472;38.432;2023-02-04T01:34:55;99834.00;;;0.07;84.92
74552;BME280;63025;55.472;38.432;2023-02-04T01:37:21;99831.09;;;0.10;84.94
74552;BME280;63025;55.472;38.432;2023-02-04T01:39:46;99835.22;;;0.13;85.22
74552;BME280;63025;55.472;38.432;2023-02-04T01:42:12;99832.44;;;0.14;85.32
74552;BME280;63025;55.472;38.432;2023-02-04T01:44:38;99825.34;;;0.15;85.55
74552;BME280;63025;55.472;38.432;2023-02-04T01:47:04;99827.69;;;0.18;84.96
74552;BME280;63025;55.472;38.432;2023-02-04T01:49:31;99832.66;;;0.21;85.63
74552;BME280;63025;55.472;38.432;2023-02-04T01:51:57;99832.13;;;0.17;85.53
74552;BME280;63025;55.472;38.432;2023-02-04T01:54:24;99840.22;;;0.16;85.18
74552;BME280;63025;55.472;38.432;2023-02-04T01:56:50;99842.16;;;0.14;85.89
74552;BME280;63025;55.472;38.432;2023-02-04T01:59:17;99841.88;;;0.17;85.91
74552;BME280;63025;55.472;38.432;2023-02-04T02:01:48;99841.59;;;0.20;85.45
74552;BME280;63025;55.472;38.432;2023-02-04T02:04:16;99846.03;;;0.19;85.46
74552;BME280;63025;55.472;38.432;2023-02-04T02:06:51;99854.81;;;0.20;85.23
74552;BME280;63025;55.472;38.432;2023-02-04T02:09:18;99850.50;;;0.19;85.45
74552;BME280;63025;55.472;38.432;2023-02-04T02:11:44;99847.72;;;0.20;84.97
74552;BME280;63025;55.472;38.432;2023-02-04T02:14:10;99853.28;;;0.17;85.00
74552;BME280;63025;55.472;38.432;2023-02-04T02:16:36;99857.03;;;0.15;85.24
74552;BME280;63025;55.472;38.432;2023-02-04T02:19:03;99854.41;;;0.15;85.16
74552;BME280;63025;55.472;38.432;2023-02-04T02:21:54;99856.22;;;0.14;85.10
74552;BME280;63025;55.472;38.432;2023-02-04T02:24:25;99856.75;;;0.18;85.15
74552;BME280;63025;55.472;38.432;2023-02-04T02:26:53;99865.50;;;0.18;84.59
74552;BME280;63025;55.472;38.432;2023-02-04T02:29:19;99869.66;;;0.21;85.39
74552;BME280;63025;55.472;38.432;2023-02-04T02:31:46;99862.41;;;0.23;85.06
74552;BME280;63025;55.472;38.432;2023-02-04T02:34:11;99866.50;;;0.17;84.63
74552;BME280;63025;55.472;38.432;2023-02-04T02:36:37;99869.28;;;0.16;85.41
74552;BME280;63025;55.472;38.432;2023-02-04T02:39:03;99871.13;;;0.06;84.86
74552;BME280;63025;55.472;38.432;2023-02-04T02:41:29;99874.31;;;0.09;85.52
74552;BME280;63025;55.472;38.432;2023-02-04T02:43:56;99865.56;;;0.09;85.12
74552;BME280;63025;55.472;38.432;2023-02-04T02:46:22;99877.50;;;0.13;85.06
74552;BME280;63025;55.472;38.432;2023-02-04T02:48:48;99883.47;;;0.15;85.23
74552;BME280;63025;55.472;38.432;2023-02-04T02:51:13;99871.50;;;0.20;84.38
74552;BME280;63025;55.472;38.432;2023-02-04T02:53:39;99880.41;;;0.19;84.88
74552;BME280;63025;55.472;38.432;2023-02-04T02:56:06;99882.88;;;0.21;84.59
74552;BME280;63025;55.472;38.432;2023-02-04T02:58:34;99880.69;;;0.16;84.92
74552;BME280;63025;55.472;38.432;2023-02-04T03:01:04;99892.78;;;0.19;84.47
74552;BME280;63025;55.472;38.432;2023-02-04T03:03:34;99898.19;;;0.17;84.46
74552;BME280;63025;55.472;38.432;2023-02-04T03:06:22;99897.38;;;0.17;84.40
74552;BME280;63025;55.472;38.432;2023-02-04T03:08:52;99900.28;;;0.14;84.52
74552;BME280;63025;55.472;38.432;2023-02-04T03:11:20;99900.84;;;0.17;84.30
74552;BME280;63025;55.472;38.432;2023-02-04T03:13:47;99905.38;;;0.25;84.13
74552;BME280;63025;55.472;38.432;2023-02-04T03:16:13;99905.66;;;0.22;84.19
74552;BME280;63025;55.472;38.432;2023-02-04T03:18:39;99909.19;;;0.13;83.79
74552;BME280;63025;55.472;38.432;2023-02-04T03:21:05;99911.97;;;0.11;84.60
74552;BME280;63025;55.472;38.432;2023-02-04T03:23:32;99916.28;;;0.12;85.07
74552;BME280;63025;55.472;38.432;2023-02-04T03:26:02;99912.03;;;0.02;85.00
74552;BME280;63025;55.472;38.432;2023-02-04T03:28:28;99926.91;;;0.03;84.43
74552;BME280;63025;55.472;38.432;2023-02-04T03:30:56;99916.31;;;0.03;84.98
74552;BME280;63025;55.472;38.432;2023-02-04T03:33:26;99922.16;;;0.06;84.44
74552;BME280;63025;55.472;38.432;2023-02-04T03:35:56;99913.78;;;0.11;84.54
74552;BME280;63025;55.472;38.432;2023-02-04T03:38:22;99923.97;;;0.06;84.42
74552;BME280;63025;55.472;38.432;2023-02-04T03:40:47;99928.97;;;0.09;84.90
74552;BME280;63025;55.472;38.432;2023-02-04T03:43:13;99926.19;;;0.10;84.10
74552;BME280;63025;55.472;38.432;2023-02-04T03:45:39;99922.72;;;0.10;84.71
74552;BME280;63025;55.472;38.432;2023-02-04T03:48:05;99919.38;;;0.08;84.16
74552;BME280;63025;55.472;38.432;2023-02-04T03:50:31;99932.97;;;0.13;84.28
74552;BME280;63025;55.472;38.432;2023-02-04T03:52:57;99926.34;;;0.09;84.66
74552;BME280;63025;55.472;38.432;2023-02-04T03:55:22;99935.94;;;0.10;84.85
74552;BME280;63025;55.472;38.432;2023-02-04T03:57:48;99942.56;;;0.14;84.24
74552;BME280;63025;55.472;38.432;2023-02-04T04:00:14;99937.56;;;0.20;84.21
74552;BME280;63025;55.472;38.432;2023-02-04T04:02:40;99934.75;;;0.22;84.67
74552;BME280;63025;55.472;38.432;2023-02-04T04:05:07;99940.84;;;0.22;83.96
74552;BME280;63025;55.472;38.432;2023-02-04T04:07:33;99940.84;;;0.22;84.02
74552;BME280;63025;55.472;38.432;2023-02-04T04:09:58;99940.56;;;0.25;84.26
74552;BME280;63025;55.472;38.432;2023-02-04T04:12:24;99943.06;;;0.27;84.16
74552;BME280;63025;55.472;38.432;2023-02-04T04:14:50;99940.84;;;0.22;84.08
74552;BME280;63025;55.472;38.432;2023-02-04T04:17:15;99932.09;;;0.22;84.00
74552;BME280;63025;55.472;38.432;2023-02-04T04:19:41;99938.91;;;0.24;83.66
74552;BME280;63025;55.472;38.432;2023-02-04T04:22:09;99948.38;;;0.27;83.58
74552;BME280;63025;55.472;38.432;2023-02-04T04:24:35;99951.97;;;0.26;83.66
74552;BME280;63025;55.472;38.432;2023-02-04T04:27:01;99950.31;;;0.25;83.43
74552;BME280;63025;55.472;38.432;2023-02-04T04:29:27;99944.88;;;0.26;84.17
74552;BME280;63025;55.472;38.432;2023-02-04T04:31:53;99948.09;;;0.30;84.03
74552;BME280;63025;55.472;38.432;2023-02-04T04:34:18;99955.84;;;0.31;83.56
74552;BME280;63025;55.472;38.432;2023-02-04T04:36:44;99958.66;;;0.30;83.10
74552;BME280;63025;55.472;38.432;2023-02-04T04:39:10;99961.44;;;0.28;83.51
74552;BME280;63025;55.472;38.432;2023-02-04T04:41:35;99957.97;;;0.28;83.66
74552;BME280;63025;55.472;38.432;2023-02-04T04:44:01;99960.66;;;0.18;83.29
74552;BME280;63025;55.472;38.432;2023-02-04T04:46:27;99969.69;;;0.16;83.74
74552;BME280;63025;55.472;38.432;2023-02-04T04:48:53;99957.59;;;0.13;84.12
74552;BME280;63025;55.472;38.432;2023-02-04T04:51:18;99976.50;;;0.18;84.04
74552;BME280;63025;55.472;38.432;2023-02-04T04:53:44;99975.53;;;0.19;83.49
74552;BME280;63025;55.472;38.432;2023-02-04T04:56:10;99981.66;;;0.20;83.03
74552;BME280;63025;55.472;38.432;2023-02-04T04:58:36;99977.84;;;0.22;83.63
74552;BME280;63025;55.472;38.432;2023-02-04T05:01:01;99983.97;;;0.23;83.83
74552;BME280;63025;55.472;38.432;2023-02-04T05:03:27;99976.03;;;0.23;83.46
74552;BME280;63025;55.472;38.432;2023-02-04T05:05:53;99987.31;;;0.25;83.94
74552;BME280;63025;55.472;38.432;2023-02-04T05:08:18;99989.94;;;0.25;83.00
74552;BME280;63025;55.472;38.432;2023-02-04T05:10:45;99990.78;;;0.25;83.43
74552;BME280;63025;55.472;38.432;2023-02-04T05:13:12;99996.75;;;0.27;82.84
74552;BME280;63025;55.472;38.432;2023-02-04T05:15:37;99990.66;;;0.27;83.42
74552;BME280;63025;55.472;38.432;2023-02-04T05:18:03;99992.88;;;0.22;82.83
74552;BME280;63025;55.472;38.432;2023-02-04T05:20:29;99993.06;;;0.20;82.63
74552;BME280;63025;55.472;38.432;2023-02-04T05:22:55;99992.50;;;0.17;83.16
74552;BME280;63025;55.472;38.432;2023-02-04T05:25:22;99997.63;;;0.18;82.88
74552;BME280;63025;55.472;38.432;2023-02-04T05:27:48;99997.63;;;0.18;83.20
74552;BME280;63025;55.472;38.432;2023-02-04T05:30:14;100004.41;;;0.21;83.63
74552;BME280;63025;55.472;38.432;2023-02-04T05:32:40;100004.59;;;0.19;83.55
74552;BME280;63025;55.472;38.432;2023-02-04T05:35:07;100007.91;;;0.21;82.99
74552;BME280;63025;55.472;38.432;2023-02-04T05:37:33;100002.34;;;0.24;83.06
74552;BME280;63025;55.472;38.432;2023-02-04T05:39:58;100009.28;;;0.25;83.56
74552;BME280;63025;55.472;38.432;2023-02-04T05:42:24;100004.84;;;0.26;82.44
74552;BME280;63025;55.472;38.432;2023-02-04T05:44:50;100007.19;;;0.29;82.76
74552;BME280;63025;55.472;38.432;2023-02-04T05:47:16;100007.06;;;0.30;82.49
74552;BME280;63025;55.472;38.432;2023-02-04T05:49:42;100010.53;;;0.31;82.93
74552;BME280;63025;55.472;38.432;2023-02-04T05:52:07;100016.47;;;0.33;83.21
74552;BME280;63025;55.472;38.432;2023-02-04T05:54:33;100019.97;;;0.33;82.99
74552;BME280;63025;55.472;38.432;2023-02-04T05:56:59;100028.44;;;0.37;82.32
74552;BME280;63025;55.472;38.432;2023-02-04T05:59:24;100024.56;;;0.41;82.25
74552;BME280;63025;55.472;38.432;2023-02-04T06:01:50;100040.50;;;0.49;82.47
74552;BME280;63025;55.472;38.432;2023-02-04T06:04:16;100043.69;;;0.53;82.23
74552;BME280;63025;55.472;38.432;2023-02-04T06:06:42;100046.88;;;0.56;82.01
74552;BME280;63025;55.472;38.432;2023-02-04T06:09:09;100047.94;;;0.63;82.77
74552;BME280;63025;55.472;38.432;2023-02-04T06:11:35;100050.56;;;0.73;82.29
74552;BME280;63025;55.472;38.432;2023-02-04T06:14:00;100046.22;;;0.82;81.54
74552;BME280;63025;55.472;38.432;2023-02-04T06:16:26;100056.88;;;0.90;81.96
74552;BME280;63025;55.472;38.432;2023-02-04T06:18:52;100060.22;;;0.92;81.10
74552;BME280;63025;55.472;38.432;2023-02-04T06:21:17;100063.38;;;0.95;81.67
74552;BME280;63025;55.472;38.432;2023-02-04T06:23:43;100062.03;;;0.91;81.13
74552;BME280;63025;55.472;38.432;2023-02-04T06:26:09;100072.84;;;0.98;80.89
74552;BME280;63025;55.472;38.432;2023-02-04T06:28:35;100077.84;;;1.01;81.92
74552;BME280;63025;55.472;38.432;2023-02-04T06:31:01;100078.88;;;0.90;81.27
74552;BME280;63025;55.472;38.432;2023-02-04T06:33:27;100079.03;;;0.89;81.09
74552;BME280;63025;55.472;38.432;2023-02-04T06:35:53;100085.25;;;0.70;81.14
74552;BME280;63025;55.472;38.432;2023-02-04T06:38:18;100088.06;;;0.59;81.76
74552;BME280;63025;55.472;38.432;2023-02-04T06:40:45;100093.19;;;0.70;82.27
74552;BME280;63025;55.472;38.432;2023-02-04T06:43:14;100088.44;;;0.64;81.04
74552;BME280;63025;55.472;38.432;2023-02-04T06:45:40;100093.75;;;0.64;81.50
74552;BME280;63025;55.472;38.432;2023-02-04T06:48:06;100092.09;;;0.53;81.71
74552;BME280;63025;55.472;38.432;2023-02-04T06:50:32;100089.59;;;0.61;82.25
74552;BME280;63025;55.472;38.432;2023-02-04T06:52:57;100095.38;;;0.74;81.65
74552;BME280;63025;55.472;38.432;2023-02-04T06:55:23;100099.41;;;0.79;81.15
74552;BME280;63025;55.472;38.432;2023-02-04T06:57:49;100089.69;;;0.69;82.01
74552;BME280;63025;55.472;38.432;2023-02-04T07:00:15;100101.22;;;0.78;81.05
74552;BME280;63025;55.472;38.432;2023-02-04T07:02:41;100113.28;;;0.90;81.27
74552;BME280;63025;55.472;38.432;2023-02-04T07:05:07;100108.94;;;0.99;80.73
74552;BME280;63025;55.472;38.432;2023-02-04T07:07:33;100110.88;;;0.97;81.50
74552;BME280;63025;55.472;38.432;2023-02-04T07:09:59;100118.47;;;0.82;81.76
74552;BME280;63025;55.472;38.432;2023-02-04T07:12:26;100116.53;;;0.74;81.49
74552;BME280;63025;55.472;38.432;2023-02-04T07:14:52;100120.72;;;0.77;81.85
74552;BME280;63025;55.472;38.432;2023-02-04T07:17:17;100116.75;;;0.91;81.78
74552;BME280;63025;55.472;38.432;2023-02-04T07:19:43;100125.50;;;1.01;81.44
74552;BME280;63025;55.472;38.432;2023-02-04T07:22:09;100125.97;;;0.87;80.57
74552;BME280;63025;55.472;38.432;2023-02-04T07:24:34;100121.13;;;0.82;80.47
74552;BME280;63025;55.472;38.432;2023-02-04T07:27:00;100136.16;;;0.82;81.08
74552;BME280;63025;55.472;38.432;2023-02-04T07:29:26;100136.25;;;0.90;80.54
74552;BME280;63025;55.472;38.432;2023-02-04T07:31:52;100133.03;;;0.96;80.83
74552;BME280;63025;55.472;38.432;2023-02-04T07:34:18;100138.31;;;0.96;80.82
74552;BME280;63025;55.472;38.432;2023-02-04T07:36:43;100140.06;;;1.05;81.47
74552;BME280;63025;55.472;38.432;2023-02-04T07:39:09;100141.22;;;1.02;81.11
74552;BME280;63025;55.472;38.432;2023-02-04T07:41:35;100146.25;;;0.96;80.68
74552;BME280;63025;55.472;38.432;2023-02-04T07:44:02;100147.91;;;0.97;80.49
74552;BME280;63025;55.472;38.432;2023-02-04T07:46:28;100151.25;;;0.99;80.38
74552;BME280;63025;55.472;38.432;2023-02-04T07:48:54;100144.38;;;0.79;81.00
74552;BME280;63025;55.472;38.432;2023-02-04T07:51:20;100148.66;;;0.89;80.36
74552;BME280;63025;55.472;38.432;2023-02-04T07:53:46;100159.38;;;0.88;80.57
74552;BME280;63025;55.472;38.432;2023-02-04T07:56:11;100158.78;;;0.94;80.61
74552;BME280;63025;55.472;38.432;2023-02-04T07:58:37;100162.91;;;1.06;80.04
74552;BME280;63025;55.472;38.432;2023-02-04T08:01:03;100157.94;;;1.30;80.05
74552;BME280;63025;55.472;38.432;2023-02-04T08:03:28;100169.91;;;1.34;79.39
74552;BME280;63025;55.472;38.432;2023-02-04T08:05:54;100159.16;;;1.36;80.05
74552;BME280;63025;55.472;38.432;2023-02-04T08:08:20;100166.94;;;1.37;79.62
74552;BME280;63025;55.472;38.432;2023-02-04T08:10:46;100161.75;;;1.45;79.39
74552;BME280;63025;55.472;38.432;2023-02-04T08:13:12;100177.34;;;1.48;79.18
74552;BME280;63025;55.472;38.432;2023-02-04T08:15:38;100175.94;;;1.54;78.63
74552;BME280;63025;55.472;38.432;2023-02-04T08:18:04;100175.47;;;1.59;78.87
74552;BME280;63025;55.472;38.432;2023-02-04T08:20:29;100166.25;;;1.63;78.88
74552;BME280;63025;55.472;38.432;2023-02-04T08:22:55;100171.94;;;1.68;78.20
74552;BME280;63025;55.472;38.432;2023-02-04T08:25:21;100176.03;;;1.62;78.10
74552;BME280;63025;55.472;38.432;2023-02-04T08:27:47;100184.59;;;1.74;78.60
74552;BME280;63025;55.472;38.432;2023-02-04T08:30:13;100189.69;;;1.85;78.21
74552;BME280;63025;55.472;38.432;2023-02-04T08:32:39;100183.19;;;1.97;77.29
74552;BME280;63025;55.472;38.432;2023-02-04T08:35:06;100182.28;;;2.06;77.37
74552;BME280;63025;55.472;38.432;2023-02-04T08:37:32;100190.81;;;2.00;77.71
74552;BME280;63025;55.472;38.432;2023-02-04T08:39:59;100189.06;;;1.91;77.61
74552;BME280;63025;55.472;38.432;2023-02-04T08:42:25;100194.22;;;1.93;77.41
74552;BME280;63025;55.472;38.432;2023-02-04T08:44:50;100187.56;;;2.06;77.76
74552;BME280;63025;55.472;38.432;2023-02-04T08:47:16;100193.69;;;2.25;77.39
74552;BME280;63025;55.472;38.432;2023-02-04T08:49:42;100195.88;;;2.29;76.73
74552;BME280;63025;55.472;38.432;2023-02-04T08:52:08;100194.53;;;2.25;76.73
74552;BME280;63025;55.472;38.432;2023-02-04T08:54:34;100199.84;;;2.25;76.26
74552;BME280;63025;55.472;38.432;2023-02-04T08:57:01;100200.34;;;2.29;76.61
74552;BME280;63025;55.472;38.432;2023-02-04T08:59:27;100198.75;;;2.00;76.40
74552;BME280;63025;55.472;38.432;2023-02-04T09:01:53;100199.22;;;1.96;76.26
74552;BME280;63025;55.472;38.432;2023-02-04T09:04:19;100207.63;;;1.91;76.71
74552;BME280;63025;55.472;38.432;2023-02-04T09:06:46;100208.72;;;2.16;76.89
74552;BME280;63025;55.472;38.432;2023-02-04T09:09:12;100207.41;;;2.20;76.14
74552;BME280;63025;55.472;38.432;2023-02-04T09:11:38;100201.97;;;2.04;76.01
74552;BME280;63025;55.472;38.432;2023-02-04T09:14:04;100206.97;;;2.07;76.58
74552;BME280;63025;55.472;38.432;2023-02-04T09:16:30;100210.66;;;1.96;76.54
74552;BME280;63025;55.472;38.432;2023-02-04T09:18:56;100208.81;;;1.79;76.63
74552;BME280;63025;55.472;38.432;2023-02-04T09:21:24;100216.91;;;1.77;76.37
74552;BME280;63025;55.472;38.432;2023-02-04T09:23:50;100209.56;;;1.89;77.35
74552;BME280;63025;55.472;38.432;2023-02-04T09:26:16;100211.66;;;1.95;76.43
74552;BME280;63025;55.472;38.432;2023-02-04T09:28:42;100216.03;;;2.04;76.45
74552;BME280;63025;55.472;38.432;2023-02-04T09:31:08;100214.88;;;1.89;76.31
74552;BME280;63025;55.472;38.432;2023-02-04T09:33:35;100221.78;;;2.00;76.77
74552;BME280;63025;55.472;38.432;2023-02-04T09:36:00;100226.66;;;2.04;76.50
74552;BME280;63025;55.472;38.432;2023-02-04T09:38:26;100226.78;;;2.20;76.43
74552;BME280;63025;55.472;38.432;2023-02-04T09:40:55;100232.72;;;2.32;76.31
74552;BME280;63025;55.472;38.432;2023-02-04T09:43:24;100223.84;;;2.41;75.58
74552;BME280;63025;55.472;38.432;2023-02-04T09:45:52;100230.38;;;2.47;75.49
74552;BME280;63025;55.472;38.432;2023-02-04T09:48:18;100228.06;;;2.52;75.26
74552;BME280;63025;55.472;38.432;2023-02-04T09:50:44;100230.28;;;2.56;75.30
74552;BME280;63025;55.472;38.432;2023-02-04T09:53:13;100227.84;;;2.63;75.09
74552;BME280;63025;55.472;38.432;2023-02-04T09:55:43;100233.13;;;2.63;75.02
74552;BME280;63025;55.472;38.432;2023-02-04T09:58:17;100224.13;;;2.56;74.85
74552;BME280;63025;55.472;38.432;2023-02-04T10:00:51;100238.84;;;2.68;75.07
74552;BME280;63025;55.472;38.432;2023-02-04T10:03:19;100241.25;;;2.79;74.00
74552;BME280;63025;55.472;38.432;2023-02-04T10:05:48;100241.34;;;2.70;73.96
74552;BME280;63025;55.472;38.432;2023-02-04T10:08:17;100245.94;;;2.50;73.75
74552;BME280;63025;55.472;38.432;2023-02-04T10:10:44;100241.19;;;2.53;73.62
74552;BME280;63025;55.472;38.432;2023-02-04T10:13:19;100234.44;;;2.41;74.40
74552;BME280;63025;55.472;38.432;2023-02-04T10:15:47;100244.31;;;2.31;73.84
74552;BME280;63025;55.472;38.432;2023-02-04T10:18:40;100245.34;;;2.20;74.82
74552;BME280;63025;55.472;38.432;2023-02-04T10:21:45;100252.25;;;2.31;75.20
74552;BME280;63025;55.472;38.432;2023-02-04T10:24:15;100252.69;;;2.09;74.52
74552;BME280;63025;55.472;38.432;2023-02-04T10:26:41;100246.25;;;2.11;75.46
74552;BME280;63025;55.472;38.432;2023-02-04T10:29:16;100247.72;;;2.24;75.56
74552;BME280;63025;55.472;38.432;2023-02-04T10:31:44;100257.25;;;2.34;75.69
74552;BME280;63025;55.472;38.432;2023-02-04T10:34:21;100258.16;;;2.43;74.92
74552;BME280;63025;55.472;38.432;2023-02-04T10:36:50;100267.78;;;2.44;75.41
74552;BME280;63025;55.472;38.432;2023-02-04T10:39:22;100272.41;;;2.42;75.11
74552;BME280;63025;55.472;38.432;2023-02-04T10:41:50;100273.63;;;2.47;75.17
74552;BME280;63025;55.472;38.432;2023-02-04T10:44:18;100276.94;;;2.49;74.92
74552;BME280;63025;55.472;38.432;2023-02-04T10:46:46;100277.63;;;2.51;75.54
74552;BME280;63025;55.472;38.432;2023-02-04T10:49:18;100278.88;;;2.57;74.90
74552;BME280;63025;55.472;38.432;2023-02-04T10:51:45;100278.78;;;2.67;75.47
74552;BME280;63025;55.472;38.432;2023-02-04T10:54:11;100282.53;;;2.82;75.02
74552;BME280;63025;55.472;38.432;2023-02-04T10:59:30;100283.06;;;2.85;74.19
74552;BME280;63025;55.472;38.432;2023-02-04T11:01:59;100292.56;;;2.88;73.96
74552;BME280;63025;55.472;38.432;2023-02-04T11:04:26;100287.56;;;2.85;74.04
74552;BME280;63025;55.472;38.432;2023-02-04T11:06:53;100290.34;;;2.83;73.65
74552;BME280;63025;55.472;38.432;2023-02-04T11:09:20;100292.41;;;2.89;73.50
74552;BME280;63025;55.472;38.432;2023-02-04T11:11:47;100292.22;;;2.91;74.09
74552;BME280;63025;55.472;38.432;2023-02-04T11:14:28;100291.09;;;2.93;74.36
74552;BME280;63025;55.472;38.432;2023-02-04T11:16:55;100290.41;;;2.91;74.48
74552;BME280;63025;55.472;38.432;2023-02-04T11:19:35;100286.47;;;2.95;73.91
74552;BME280;63025;55.472;38.432;2023-02-04T11:24:46;100290.25;;;2.93;73.91
74552;BME280;63025;55.472;38.432;2023-02-04T11:29:43;100304.22;;;2.95;73.84
74552;BME280;63025;55.472;38.432;2023-02-04T11:32:31;100303.91;;;2.98;73.87
74552;BME280;63025;55.472;38.432;2023-02-04T11:35:21;100303.91;;;2.98;74.43
74552;BME280;63025;55.472;38.432;2023-02-04T11:37:47;100310.22;;;2.97;73.78
74552;BME280;63025;55.472;38.432;2023-02-04T11:40:30;100315.88;;;3.02;74.22
74552;BME280;63025;55.472;38.432;2023-02-04T11:43:16;100308.41;;;2.98;74.47
74552;BME280;63025;55.472;38.432;2023-02-04T11:45:43;100318.97;;;2.89;74.32
74552;BME280;63025;55.472;38.432;2023-02-04T11:48:12;100312.56;;;2.82;74.13
74552;BME280;63025;55.472;38.432;2023-02-04T11:50:39;100319.84;;;2.80;74.74
74552;BME280;63025;55.472;38.432;2023-02-04T11:53:09;100316.53;;;2.78;74.75
74552;BME280;63025;55.472;38.432;2023-02-04T11:55:42;100313.78;;;2.70;74.75
74552;BME280;63025;55.472;38.432;2023-02-04T11:58:17;100325.03;;;2.64;75.28
74552;BME280;63025;55.472;38.432;2023-02-04T12:00:43;100323.81;;;2.58;75.42
74552;BME280;63025;55.472;38.432;2023-02-04T12:03:27;100329.13;;;2.58;75.22
74552;BME280;63025;55.472;38.432;2023-02-04T12:05:57;100321.00;;;2.60;75.88
74552;BME280;63025;55.472;38.432;2023-02-04T12:08:25;100335.94;;;2.61;76.06
74552;BME280;63025;55.472;38.432;2023-02-04T12:11:01;100325.16;;;2.63;76.06
74552;BME280;63025;55.472;38.432;2023-02-04T12:13:28;100332.84;;;2.66;75.91
74552;BME280;63025;55.472;38.432;2023-02-04T12:16:03;100332.69;;;2.67;75.72
74552;BME280;63025;55.472;38.432;2023-02-04T12:18:30;100338.00;;;2.67;76.03
74552;BME280;63025;55.472;38.432;2023-02-04T12:20:57;100340.78;;;2.66;76.45
74552;BME280;63025;55.472;38.432;2023-02-04T12:23:25;100346.63;;;2.69;76.17
74552;BME280;63025;55.472;38.432;2023-02-04T12:25:51;100342.97;;;2.70;75.89
74552;BME280;63025;55.472;38.432;2023-02-04T12:28:17;100349.94;;;2.71;76.18
74552;BME280;63025;55.472;38.432;2023-02-04T12:30:43;100351.13;;;2.69;75.98
74552;BME280;63025;55.472;38.432;2023-02-04T12:33:08;100357.56;;;2.66;76.45
74552;BME280;63025;55.472;38.432;2023-02-04T12:35:34;100352.25;;;2.66;76.06
74552;BME280;63025;55.472;38.432;2023-02-04T12:38:00;100356.78;;;2.56;76.40
74552;BME280;63025;55.472;38.432;2023-02-04T12:40:26;100354.13;;;2.56;76.14
74552;BME280;63025;55.472;38.432;2023-02-04T12:42:53;100357.63;;;2.56;76.50
74552;BME280;63025;55.472;38.432;2023-02-04T12:45:18;100361.41;;;2.54;76.97
74552;BME280;63025;55.472;38.432;2023-02-04T12:47:45;100360.72;;;2.52;77.23
74552;BME280;63025;55.472;38.432;2023-02-04T12:50:13;100367.13;;;2.49;76.79
74552;BME280;63025;55.472;38.432;2023-02-04T12:52:39;100364.66;;;2.48;76.58
74552;BME280;63025;55.472;38.432;2023-02-04T12:55:06;100370.25;;;2.45;76.89
74552;BME280;63025;55.472;38.432;2023-02-04T12:57:33;100368.88;;;2.41;76.78
74552;BME280;63025;55.472;38.432;2023-02-04T12:59:59;100366.53;;;2.38;76.97
74552;BME280;63025;55.472;38.432;2023-02-04T13:02:26;100372.00;;;2.36;77.39
74552;BME280;63025;55.472;38.432;2023-02-04T13:04:53;100378.41;;;2.34;77.31